ADDS METAR Data INFO
IDs: Format: Raw Decoded Include TAF

Data at: 0509 UTC 21 Feb 2018

KSDM 201453Z AUTO 11007KT 10SM CLR 02/M01 A3011 RMK AO2 SLP198 T00171011 53022
KSDM 201353Z AUTO 15004KT 10SM CLR 04/M02 A3009 RMK AO2 SLP191 T00391022
KSDM 201253Z AUTO 05003KT 10SM CLR 02/M02 A3007 RMK AO2 SLP182 T00221022
KSDM 201153Z AUTO 06006KT 10SM CLR 03/M02 A3005 RMK AO2 SLP175 60000 70002 T00331017 10094 20022 58003
KSDM 201053Z AUTO 00000KT 10SM CLR 05/M02 A3005 RMK AO2 SLP177 T00501017
KSDM 200953Z AUTO 00000KT 10SM CLR 04/M03 A3006 RMK AO2 SLP179 T00441028
KSDM 200853Z AUTO 00000KT 10SM CLR 07/M02 A3006 RMK AO2 SLP177 60000 T00721017 51019
KSDM 200753Z AUTO 00000KT 10SM SCT075 08/00 A3005 RMK AO2 SLP174 T00830000 401500083
KSDM 200653Z AUTO 00000KT 10SM SCT080 09/02 A3002 RMK AO2 RAE0557 SLP165 P0000 T00890017
KSDM 200553Z AUTO 01004KT 10SM -RA FEW042 BKN050 OVC075 09/03 A3000 RMK AO2 RAB05E15B48 SLP158 P0000 60002 T00940028 10128 20083 53013
KSDM 200453Z AUTO 29005KT 10SM FEW044 FEW060 SCT075 10/03 A2998 RMK AO2 SLP150 T01000028
KSDM 200353Z 28008KT 10SM BKN043 BKN055 OVC065 09/03 A2997 RMK AO2 RAB08E30 SLP148 P0002 T00940033
KSDM 200253Z 29011G16KT 10SM CLR 11/01 A2996 RMK AO2 RAB01E12 SLP145 P0000 60000 T01060006 53005
KSDM 200153Z 28010G19KT 10SM SCT070 11/02 A2995 RMK AO2 SLP139 T01110022
KSDM 200053Z AUTO 28011G20KT 10SM CLR 12/02 A2994 RMK AO2 SLP139 T01170017
KSDM 192353Z 27014G21KT 10SM SCT037 13/04 A2995 RMK AO2 PK WND 28026/2338 SLP139 T01280039 10150 20128 58000
KSDM 192253Z 28013G21KT 10SM CLR 13/00 A2995 RMK AO2 SLP140 T01330000
KSDM 192153Z 28015G21KT 10SM CLR 14/M01 A2994 RMK AO2 SLP139 T01391006
KSDM 192053Z 29014G23KT 10SM CLR 14/01 A2995 RMK AO2 SLP139 T01390006 58005
KSDM 191953Z 26016G25KT 10SM FEW049 FEW060 13/01 A2996 RMK AO2 SLP144 T01330011
KSDM 191853Z 29015G24KT 10SM FEW046 14/02 A2996 RMK AO2 PK WND 26027/1830 SLP144 T01390017
KSDM 191753Z 28018G23KT 10SM FEW039 13/03 A2996 RMK AO2 PK WND 28026/1657 SLP143 T01330033 10139 20111 51013